This is the latest recevied weather packets stored in our database for station/object OE-11208. If no packets are shown the sender has not sent any weather packets the latest 10 day(s).
| Time | Temp. | Humidity | Pressure | Rain* | Wind** | Luminosity | Snow |
|---|---|---|---|---|---|---|---|
| 1787927721 | 31.11° C | 50% | 1005.2 hPa | 0 mm | - | 404 W/m² | - |
| 1787927121 | 31.11° C | 48% | 1005.5 hPa | 0 mm | - | 336 W/m² | - |
| 1787926295 | 30° C | 54% | 1006 hPa | 0 mm | - | 256 W/m² | - |
| 1787925922 | 31.11° C | 35% | 1006.1 hPa | 0 mm | - | 188 W/m² | - |
| 1787925322 | 31.67° C | 42% | 1005.7 hPa | 0 mm | - | 249 W/m² | - |
| 1787924495 | 32.22° C | 37% | 1005.7 hPa | 0 mm | - | 343 W/m² | - |
| 1787924122 | 33.33° C | 26% | 1005.8 hPa | 0 mm | - | 504 W/m² | - |
| 1787923522 | 33.33° C | 35% | 1005.6 hPa | 0 mm | - | 558 W/m² | - |
| 1787922693 | 32.78° C | 32% | 1005.8 hPa | 0 mm | - | 572 W/m² | - |
| 1787922321 | 33.33° C | 29% | 1005.7 hPa | 0 mm | - | 639 W/m² | - |
| 1787921722 | 32.78° C | 31% | 1006.1 hPa | 0 mm | - | 578 W/m² | - |
| 1787920894 | 32.78° C | 31% | 1006.1 hPa | 0 mm | - | 666 W/m² | - |
| 1787920522 | 32.22° C | 42% | 1006.1 hPa | 0 mm | - | 646 W/m² | - |
| 1787919922 | 32.22° C | 41% | 1006.1 hPa | 0 mm | - | 746 W/m² | - |
| 1787919095 | 31.67° C | 41% | 1006.3 hPa | 0 mm | - | 773 W/m² | - |
| 1787918721 | 31.11° C | 50% | 1006.3 hPa | 0 mm | - | 773 W/m² | - |
| 1787918121 | 30.56° C | 49% | 1006.6 hPa | 0 mm | - | 787 W/m² | - |
| 1787917294 | 30° C | 53% | 1006.6 hPa | 0 mm | - | 773 W/m² | - |
| 1787916922 | 30° C | 48% | 1007 hPa | 0 mm | - | 773 W/m² | - |
| 1787916322 | 29.44° C | 50% | 1007.2 hPa | 0 mm | - | 773 W/m² | - |
| 1787915494 | 28.89° C | 57% | 1007.2 hPa | 0 mm | - | 760 W/m² | - |
| 1787915122 | 28.33° C | 56% | 1007.4 hPa | 0 mm | - | 746 W/m² | - |
| 1787914522 | 27.78° C | 58% | 1007.8 hPa | 0 mm | - | 753 W/m² | - |
| 1787913695 | 27.22° C | 54% | 1008.3 hPa | 0 mm | - | 746 W/m² | - |
| 1787913322 | 27.22° C | 57% | 1008.4 hPa | 0 mm | - | 740 W/m² | - |
* Rain latest hour (hover to see other rain measurements)
** Current wind speed in m/s (hover to see current wind gust speed)